sensor_id;sensor_type;location;lat;lon;timestamp;P1;durP1;ratioP1;P2;durP2;ratioP2
44214;SDS011;29884;47.450;19.124;2023-05-07T00:00:00;8.00;;;6.78;;
44214;SDS011;29884;47.450;19.124;2023-05-07T00:02:26;8.00;;;6.82;;
44214;SDS011;29884;47.450;19.124;2023-05-07T00:04:52;8.80;;;6.80;;
44214;SDS011;29884;47.450;19.124;2023-05-07T00:07:17;9.38;;;7.07;;
44214;SDS011;29884;47.450;19.124;2023-05-07T00:09:43;10.07;;;7.68;;
44214;SDS011;29884;47.450;19.124;2023-05-07T00:12:09;9.70;;;7.15;;
44214;SDS011;29884;47.450;19.124;2023-05-07T00:14:35;12.07;;;7.47;;
44214;SDS011;29884;47.450;19.124;2023-05-07T00:17:01;11.15;;;7.20;;
44214;SDS011;29884;47.450;19.124;2023-05-07T00:19:27;9.70;;;7.55;;
44214;SDS011;29884;47.450;19.124;2023-05-07T00:21:53;9.07;;;7.55;;
44214;SDS011;29884;47.450;19.124;2023-05-07T00:24:19;9.43;;;7.15;;
44214;SDS011;29884;47.450;19.124;2023-05-07T00:26:45;8.55;;;6.88;;
44214;SDS011;29884;47.450;19.124;2023-05-07T00:29:10;8.95;;;7.35;;
44214;SDS011;29884;47.450;19.124;2023-05-07T00:31:36;9.32;;;7.07;;
44214;SDS011;29884;47.450;19.124;2023-05-07T00:34:02;8.40;;;7.25;;
44214;SDS011;29884;47.450;19.124;2023-05-07T00:36:28;8.43;;;6.93;;
44214;SDS011;29884;47.450;19.124;2023-05-07T00:38:54;9.30;;;7.18;;
44214;SDS011;29884;47.450;19.124;2023-05-07T00:41:21;9.38;;;7.38;;
44214;SDS011;29884;47.450;19.124;2023-05-07T00:43:47;9.60;;;7.80;;
44214;SDS011;29884;47.450;19.124;2023-05-07T00:46:13;8.57;;;7.15;;
44214;SDS011;29884;47.450;19.124;2023-05-07T00:48:40;9.43;;;7.32;;
44214;SDS011;29884;47.450;19.124;2023-05-07T00:51:06;11.40;;;7.78;;
44214;SDS011;29884;47.450;19.124;2023-05-07T00:53:32;9.85;;;6.93;;
44214;SDS011;29884;47.450;19.124;2023-05-07T00:55:58;10.90;;;7.63;;
44214;SDS011;29884;47.450;19.124;2023-05-07T00:58:25;10.13;;;7.38;;
44214;SDS011;29884;47.450;19.124;2023-05-07T01:00:51;9.05;;;7.05;;
44214;SDS011;29884;47.450;19.124;2023-05-07T01:03:17;11.18;;;7.82;;
44214;SDS011;29884;47.450;19.124;2023-05-07T01:05:43;8.45;;;6.72;;
44214;SDS011;29884;47.450;19.124;2023-05-07T01:08:11;9.90;;;7.28;;
44214;SDS011;29884;47.450;19.124;2023-05-07T01:10:37;9.52;;;7.75;;
44214;SDS011;29884;47.450;19.124;2023-05-07T01:13:07;9.10;;;7.75;;
44214;SDS011;29884;47.450;19.124;2023-05-07T01:15:35;8.35;;;7.05;;
44214;SDS011;29884;47.450;19.124;2023-05-07T01:18:01;8.48;;;6.90;;
44214;SDS011;29884;47.450;19.124;2023-05-07T01:20:27;9.52;;;7.40;;
44214;SDS011;29884;47.450;19.124;2023-05-07T01:22:53;8.57;;;6.93;;
44214;SDS011;29884;47.450;19.124;2023-05-07T01:25:20;9.68;;;7.25;;
44214;SDS011;29884;47.450;19.124;2023-05-07T01:27:47;8.95;;;7.55;;
44214;SDS011;29884;47.450;19.124;2023-05-07T01:30:12;9.85;;;7.25;;
44214;SDS011;29884;47.450;19.124;2023-05-07T01:32:43;8.80;;;7.43;;
44214;SDS011;29884;47.450;19.124;2023-05-07T01:35:13;9.02;;;7.50;;
44214;SDS011;29884;47.450;19.124;2023-05-07T01:37:44;9.63;;;6.85;;
44214;SDS011;29884;47.450;19.124;2023-05-07T01:40:10;8.95;;;6.68;;
44214;SDS011;29884;47.450;19.124;2023-05-07T01:42:36;8.25;;;6.78;;
44214;SDS011;29884;47.450;19.124;2023-05-07T01:45:03;6.85;;;6.05;;
44214;SDS011;29884;47.450;19.124;2023-05-07T01:47:29;7.40;;;5.57;;
44214;SDS011;29884;47.450;19.124;2023-05-07T01:49:55;7.85;;;5.82;;
44214;SDS011;29884;47.450;19.124;2023-05-07T01:52:22;6.30;;;5.38;;
44214;SDS011;29884;47.450;19.124;2023-05-07T01:54:47;5.55;;;4.35;;
44214;SDS011;29884;47.450;19.124;2023-05-07T01:57:13;4.45;;;3.88;;
44214;SDS011;29884;47.450;19.124;2023-05-07T01:59:39;4.70;;;3.90;;
44214;SDS011;29884;47.450;19.124;2023-05-07T02:02:05;4.47;;;3.70;;
44214;SDS011;29884;47.450;19.124;2023-05-07T02:04:30;5.55;;;3.53;;
44214;SDS011;29884;47.450;19.124;2023-05-07T02:06:56;3.70;;;3.08;;
44214;SDS011;29884;47.450;19.124;2023-05-07T02:09:22;4.22;;;3.22;;
44214;SDS011;29884;47.450;19.124;2023-05-07T02:11:48;3.97;;;3.05;;
44214;SDS011;29884;47.450;19.124;2023-05-07T02:14:14;4.20;;;2.88;;
44214;SDS011;29884;47.450;19.124;2023-05-07T02:16:40;3.50;;;2.47;;
44214;SDS011;29884;47.450;19.124;2023-05-07T02:19:06;4.28;;;3.08;;
44214;SDS011;29884;47.450;19.124;2023-05-07T02:21:32;3.60;;;3.00;;
44214;SDS011;29884;47.450;19.124;2023-05-07T02:23:58;3.97;;;3.00;;
44214;SDS011;29884;47.450;19.124;2023-05-07T02:26:23;3.20;;;2.90;;
44214;SDS011;29884;47.450;19.124;2023-05-07T02:28:50;4.72;;;3.42;;
44214;SDS011;29884;47.450;19.124;2023-05-07T02:31:17;3.90;;;3.10;;
44214;SDS011;29884;47.450;19.124;2023-05-07T02:33:42;5.22;;;3.72;;
44214;SDS011;29884;47.450;19.124;2023-05-07T02:36:10;4.80;;;3.20;;
44214;SDS011;29884;47.450;19.124;2023-05-07T02:38:37;3.88;;;3.42;;
44214;SDS011;29884;47.450;19.124;2023-05-07T02:41:02;5.32;;;3.75;;
44214;SDS011;29884;47.450;19.124;2023-05-07T02:43:28;5.68;;;3.55;;
44214;SDS011;29884;47.450;19.124;2023-05-07T02:46:04;5.95;;;3.85;;
44214;SDS011;29884;47.450;19.124;2023-05-07T02:48:30;5.90;;;3.67;;
44214;SDS011;29884;47.450;19.124;2023-05-07T02:50:57;4.47;;;3.47;;
44214;SDS011;29884;47.450;19.124;2023-05-07T02:53:23;7.38;;;3.38;;
44214;SDS011;29884;47.450;19.124;2023-05-07T02:55:51;5.28;;;3.55;;
44214;SDS011;29884;47.450;19.124;2023-05-07T02:58:18;4.05;;;2.85;;
44214;SDS011;29884;47.450;19.124;2023-05-07T03:00:43;3.63;;;2.80;;
44214;SDS011;29884;47.450;19.124;2023-05-07T03:03:09;4.65;;;3.25;;
44214;SDS011;29884;47.450;19.124;2023-05-07T03:05:35;3.80;;;3.40;;
44214;SDS011;29884;47.450;19.124;2023-05-07T03:08:01;5.00;;;2.85;;
44214;SDS011;29884;47.450;19.124;2023-05-07T03:10:28;5.20;;;3.38;;
44214;SDS011;29884;47.450;19.124;2023-05-07T03:12:54;5.28;;;3.33;;
44214;SDS011;29884;47.450;19.124;2023-05-07T03:15:20;5.90;;;3.70;;
44214;SDS011;29884;47.450;19.124;2023-05-07T03:17:46;4.07;;;3.63;;
44214;SDS011;29884;47.450;19.124;2023-05-07T03:20:12;4.25;;;3.45;;
44214;SDS011;29884;47.450;19.124;2023-05-07T03:22:38;5.00;;;3.90;;
44214;SDS011;29884;47.450;19.124;2023-05-07T03:25:04;4.82;;;3.80;;
44214;SDS011;29884;47.450;19.124;2023-05-07T03:27:31;5.00;;;3.80;;
44214;SDS011;29884;47.450;19.124;2023-05-07T03:29:57;4.75;;;3.47;;
44214;SDS011;29884;47.450;19.124;2023-05-07T03:32:22;4.28;;;3.50;;
44214;SDS011;29884;47.450;19.124;2023-05-07T03:34:48;5.13;;;3.63;;
44214;SDS011;29884;47.450;19.124;2023-05-07T03:37:14;4.13;;;3.72;;
44214;SDS011;29884;47.450;19.124;2023-05-07T03:39:40;4.38;;;3.80;;
44214;SDS011;29884;47.450;19.124;2023-05-07T03:42:06;6.50;;;3.63;;
44214;SDS011;29884;47.450;19.124;2023-05-07T03:44:32;5.30;;;4.05;;
44214;SDS011;29884;47.450;19.124;2023-05-07T03:46:57;5.07;;;4.25;;
44214;SDS011;29884;47.450;19.124;2023-05-07T03:49:23;4.57;;;3.92;;
44214;SDS011;29884;47.450;19.124;2023-05-07T03:51:49;6.20;;;4.90;;
44214;SDS011;29884;47.450;19.124;2023-05-07T03:54:15;7.72;;;5.10;;
44214;SDS011;29884;47.450;19.124;2023-05-07T03:56:41;6.60;;;5.10;;
44214;SDS011;29884;47.450;19.124;2023-05-07T03:59:06;6.72;;;5.68;;
44214;SDS011;29884;47.450;19.124;2023-05-07T04:01:32;6.32;;;5.50;;
44214;SDS011;29884;47.450;19.124;2023-05-07T04:03:58;6.20;;;5.32;;
44214;SDS011;29884;47.450;19.124;2023-05-07T04:06:24;7.95;;;5.80;;
44214;SDS011;29884;47.450;19.124;2023-05-07T04:08:49;9.05;;;6.35;;
44214;SDS011;29884;47.450;19.124;2023-05-07T04:11:15;8.45;;;6.47;;
44214;SDS011;29884;47.450;19.124;2023-05-07T04:13:41;8.02;;;6.20;;
44214;SDS011;29884;47.450;19.124;2023-05-07T04:16:07;9.75;;;6.05;;
44214;SDS011;29884;47.450;19.124;2023-05-07T04:18:33;9.13;;;6.20;;
44214;SDS011;29884;47.450;19.124;2023-05-07T04:20:58;10.05;;;6.47;;
44214;SDS011;29884;47.450;19.124;2023-05-07T04:23:24;10.20;;;6.65;;
44214;SDS011;29884;47.450;19.124;2023-05-07T04:25:50;9.30;;;6.72;;
44214;SDS011;29884;47.450;19.124;2023-05-07T04:28:16;7.53;;;6.25;;
44214;SDS011;29884;47.450;19.124;2023-05-07T04:30:42;9.88;;;6.90;;
44214;SDS011;29884;47.450;19.124;2023-05-07T04:33:08;9.45;;;6.53;;
44214;SDS011;29884;47.450;19.124;2023-05-07T04:35:34;8.45;;;6.30;;
44214;SDS011;29884;47.450;19.124;2023-05-07T04:38:00;8.60;;;6.63;;
44214;SDS011;29884;47.450;19.124;2023-05-07T04:40:26;9.25;;;7.03;;
44214;SDS011;29884;47.450;19.124;2023-05-07T04:42:52;11.32;;;7.38;;
44214;SDS011;29884;47.450;19.124;2023-05-07T04:45:18;10.35;;;7.43;;
44214;SDS011;29884;47.450;19.124;2023-05-07T04:47:44;9.43;;;7.35;;
44214;SDS011;29884;47.450;19.124;2023-05-07T04:50:09;10.13;;;7.28;;
44214;SDS011;29884;47.450;19.124;2023-05-07T04:52:35;10.35;;;7.32;;
44214;SDS011;29884;47.450;19.124;2023-05-07T04:55:01;9.57;;;7.38;;
44214;SDS011;29884;47.450;19.124;2023-05-07T04:57:27;9.57;;;7.22;;
44214;SDS011;29884;47.450;19.124;2023-05-07T04:59:53;8.20;;;6.65;;
44214;SDS011;29884;47.450;19.124;2023-05-07T05:02:19;10.77;;;6.53;;
44214;SDS011;29884;47.450;19.124;2023-05-07T05:04:45;7.80;;;6.28;;
44214;SDS011;29884;47.450;19.124;2023-05-07T05:07:11;9.13;;;7.00;;
44214;SDS011;29884;47.450;19.124;2023-05-07T05:09:37;8.80;;;6.25;;
44214;SDS011;29884;47.450;19.124;2023-05-07T05:12:02;7.47;;;6.13;;
44214;SDS011;29884;47.450;19.124;2023-05-07T05:14:29;8.13;;;6.47;;
44214;SDS011;29884;47.450;19.124;2023-05-07T05:16:54;7.55;;;5.75;;
44214;SDS011;29884;47.450;19.124;2023-05-07T05:19:20;11.40;;;5.97;;
44214;SDS011;29884;47.450;19.124;2023-05-07T05:21:46;8.60;;;5.80;;
44214;SDS011;29884;47.450;19.124;2023-05-07T05:24:11;6.97;;;5.70;;
44214;SDS011;29884;47.450;19.124;2023-05-07T05:26:37;8.20;;;5.90;;
44214;SDS011;29884;47.450;19.124;2023-05-07T05:29:03;7.18;;;5.65;;
44214;SDS011;29884;47.450;19.124;2023-05-07T05:31:29;6.55;;;5.85;;
44214;SDS011;29884;47.450;19.124;2023-05-07T05:33:55;9.25;;;5.85;;
44214;SDS011;29884;47.450;19.124;2023-05-07T05:36:20;7.90;;;6.07;;
44214;SDS011;29884;47.450;19.124;2023-05-07T05:38:46;6.28;;;5.68;;
44214;SDS011;29884;47.450;19.124;2023-05-07T05:41:12;8.10;;;5.72;;
44214;SDS011;29884;47.450;19.124;2023-05-07T05:43:38;7.22;;;5.68;;
44214;SDS011;29884;47.450;19.124;2023-05-07T05:46:03;7.00;;;5.30;;
44214;SDS011;29884;47.450;19.124;2023-05-07T05:48:29;7.03;;;5.50;;
44214;SDS011;29884;47.450;19.124;2023-05-07T05:50:55;7.13;;;5.00;;
44214;SDS011;29884;47.450;19.124;2023-05-07T05:53:21;6.20;;;5.15;;
44214;SDS011;29884;47.450;19.124;2023-05-07T05:55:47;6.28;;;5.30;;
44214;SDS011;29884;47.450;19.124;2023-05-07T05:58:12;6.00;;;5.10;;
44214;SDS011;29884;47.450;19.124;2023-05-07T06:00:40;6.38;;;4.97;;
44214;SDS011;29884;47.450;19.124;2023-05-07T06:03:05;5.40;;;4.75;;
44214;SDS011;29884;47.450;19.124;2023-05-07T06:05:31;7.82;;;5.53;;
44214;SDS011;29884;47.450;19.124;2023-05-07T06:07:57;7.03;;;5.63;;
44214;SDS011;29884;47.450;19.124;2023-05-07T06:10:23;6.40;;;5.57;;
44214;SDS011;29884;47.450;19.124;2023-05-07T06:12:49;6.60;;;4.97;;
44214;SDS011;29884;47.450;19.124;2023-05-07T06:15:15;5.55;;;4.70;;
44214;SDS011;29884;47.450;19.124;2023-05-07T06:17:40;5.60;;;4.90;;
44214;SDS011;29884;47.450;19.124;2023-05-07T06:20:06;6.18;;;4.85;;
44214;SDS011;29884;47.450;19.124;2023-05-07T06:22:32;4.93;;;4.32;;
44214;SDS011;29884;47.450;19.124;2023-05-07T06:24:58;5.18;;;4.38;;
44214;SDS011;29884;47.450;19.124;2023-05-07T06:27:24;5.85;;;4.78;;
44214;SDS011;29884;47.450;19.124;2023-05-07T06:29:50;5.82;;;4.50;;
44214;SDS011;29884;47.450;19.124;2023-05-07T06:32:15;4.63;;;4.22;;
44214;SDS011;29884;47.450;19.124;2023-05-07T06:34:42;6.47;;;3.95;;
44214;SDS011;29884;47.450;19.124;2023-05-07T06:37:08;5.30;;;3.78;;
44214;SDS011;29884;47.450;19.124;2023-05-07T06:39:33;5.07;;;3.20;;
44214;SDS011;29884;47.450;19.124;2023-05-07T06:42:00;6.30;;;3.55;;
44214;SDS011;29884;47.450;19.124;2023-05-07T06:44:27;5.40;;;3.70;;
44214;SDS011;29884;47.450;19.124;2023-05-07T06:46:52;2.35;;;2.13;;
44214;SDS011;29884;47.450;19.124;2023-05-07T06:49:18;3.88;;;2.75;;
44214;SDS011;29884;47.450;19.124;2023-05-07T06:51:44;2.50;;;1.60;;
44214;SDS011;29884;47.450;19.124;2023-05-07T06:54:10;2.97;;;2.40;;
44214;SDS011;29884;47.450;19.124;2023-05-07T06:56:36;2.55;;;1.67;;
44214;SDS011;29884;47.450;19.124;2023-05-07T06:59:02;3.45;;;2.40;;
44214;SDS011;29884;47.450;19.124;2023-05-07T07:01:28;2.42;;;2.08;;
44214;SDS011;29884;47.450;19.124;2023-05-07T07:03:54;2.97;;;2.67;;
44214;SDS011;29884;47.450;19.124;2023-05-07T07:06:19;3.40;;;2.72;;
44214;SDS011;29884;47.450;19.124;2023-05-07T07:08:45;2.70;;;2.10;;
44214;SDS011;29884;47.450;19.124;2023-05-07T07:11:11;2.33;;;1.40;;
44214;SDS011;29884;47.450;19.124;2023-05-07T07:13:37;1.23;;;0.80;;
44214;SDS011;29884;47.450;19.124;2023-05-07T07:16:03;1.30;;;1.00;;
44214;SDS011;29884;47.450;19.124;2023-05-07T07:18:29;0.70;;;0.60;;
44214;SDS011;29884;47.450;19.124;2023-05-07T07:20:55;1.55;;;0.80;;
44214;SDS011;29884;47.450;19.124;2023-05-07T07:23:21;1.83;;;0.60;;
44214;SDS011;29884;47.450;19.124;2023-05-07T07:25:46;1.45;;;0.80;;
44214;SDS011;29884;47.450;19.124;2023-05-07T07:28:12;1.55;;;0.60;;
44214;SDS011;29884;47.450;19.124;2023-05-07T07:30:38;1.45;;;0.70;;
44214;SDS011;29884;47.450;19.124;2023-05-07T07:33:04;1.38;;;0.70;;
44214;SDS011;29884;47.450;19.124;2023-05-07T07:35:33;1.83;;;0.75;;
44214;SDS011;29884;47.450;19.124;2023-05-07T07:37:59;1.73;;;0.60;;
44214;SDS011;29884;47.450;19.124;2023-05-07T07:40:26;0.88;;;0.68;;
44214;SDS011;29884;47.450;19.124;2023-05-07T07:42:53;1.13;;;0.80;;
44214;SDS011;29884;47.450;19.124;2023-05-07T07:45:19;1.70;;;0.70;;
44214;SDS011;29884;47.450;19.124;2023-05-07T07:47:44;1.20;;;0.80;;
44214;SDS011;29884;47.450;19.124;2023-05-07T07:50:10;1.83;;;1.05;;
44214;SDS011;29884;47.450;19.124;2023-05-07T07:52:36;1.40;;;1.00;;
44214;SDS011;29884;47.450;19.124;2023-05-07T07:55:02;1.73;;;0.90;;
44214;SDS011;29884;47.450;19.124;2023-05-07T07:57:29;1.65;;;0.70;;
44214;SDS011;29884;47.450;19.124;2023-05-07T07:59:55;2.20;;;0.70;;
44214;SDS011;29884;47.450;19.124;2023-05-07T08:02:21;2.47;;;0.98;;
44214;SDS011;29884;47.450;19.124;2023-05-07T08:04:47;1.52;;;0.80;;
44214;SDS011;29884;47.450;19.124;2023-05-07T08:07:12;0.88;;;0.63;;
44214;SDS011;29884;47.450;19.124;2023-05-07T08:09:38;0.88;;;0.68;;
44214;SDS011;29884;47.450;19.124;2023-05-07T08:12:05;1.00;;;0.60;;
44214;SDS011;29884;47.450;19.124;2023-05-07T08:14:31;1.60;;;0.70;;
44214;SDS011;29884;47.450;19.124;2023-05-07T08:16:57;1.17;;;0.60;;
44214;SDS011;29884;47.450;19.124;2023-05-07T08:19:23;0.68;;;0.57;;
44214;SDS011;29884;47.450;19.124;2023-05-07T08:21:48;1.77;;;0.60;;
44214;SDS011;29884;47.450;19.124;2023-05-07T08:24:15;3.28;;;0.60;;
44214;SDS011;29884;47.450;19.124;2023-05-07T08:26:41;2.60;;;0.75;;
44214;SDS011;29884;47.450;19.124;2023-05-07T08:29:07;0.95;;;0.70;;
44214;SDS011;29884;47.450;19.124;2023-05-07T08:31:33;2.50;;;0.70;;
44214;SDS011;29884;47.450;19.124;2023-05-07T08:33:58;1.52;;;0.80;;
44214;SDS011;29884;47.450;19.124;2023-05-07T08:36:25;0.98;;;0.70;;
44214;SDS011;29884;47.450;19.124;2023-05-07T08:38:51;0.88;;;0.60;;
44214;SDS011;29884;47.450;19.124;2023-05-07T08:41:17;1.20;;;0.60;;
44214;SDS011;29884;47.450;19.124;2023-05-07T08:43:43;1.10;;;0.70;;
44214;SDS011;29884;47.450;19.124;2023-05-07T08:46:13;1.05;;;0.73;;
44214;SDS011;29884;47.450;19.124;2023-05-07T08:48:50;2.47;;;0.80;;
44214;SDS011;29884;47.450;19.124;2023-05-07T08:51:17;1.23;;;0.80;;
44214;SDS011;29884;47.450;19.124;2023-05-07T08:53:44;2.33;;;0.98;;
44214;SDS011;29884;47.450;19.124;2023-05-07T08:56:11;3.30;;;1.00;;
44214;SDS011;29884;47.450;19.124;2023-05-07T08:58:37;1.13;;;0.80;;
44214;SDS011;29884;47.450;19.124;2023-05-07T09:01:07;1.20;;;0.90;;
44214;SDS011;29884;47.450;19.124;2023-05-07T09:03:35;2.53;;;1.10;;
44214;SDS011;29884;47.450;19.124;2023-05-07T09:06:04;2.50;;;0.80;;
44214;SDS011;29884;47.450;19.124;2023-05-07T09:08:31;1.60;;;0.80;;
44214;SDS011;29884;47.450;19.124;2023-05-07T09:10:58;1.98;;;0.90;;
44214;SDS011;29884;47.450;19.124;2023-05-07T09:13:24;1.30;;;0.90;;
44214;SDS011;29884;47.450;19.124;2023-05-07T09:15:51;1.92;;;1.10;;
44214;SDS011;29884;47.450;19.124;2023-05-07T09:18:17;1.52;;;1.10;;
44214;SDS011;29884;47.450;19.124;2023-05-07T09:20:43;1.55;;;1.00;;
44214;SDS011;29884;47.450;19.124;2023-05-07T09:23:09;1.60;;;1.17;;
44214;SDS011;29884;47.450;19.124;2023-05-07T09:25:35;3.08;;;1.10;;
44214;SDS011;29884;47.450;19.124;2023-05-07T09:28:02;1.70;;;1.10;;
44214;SDS011;29884;47.450;19.124;2023-05-07T09:30:30;2.47;;;1.30;;
44214;SDS011;29884;47.450;19.124;2023-05-07T09:33:00;1.42;;;1.10;;
44214;SDS011;29884;47.450;19.124;2023-05-07T09:35:27;2.03;;;1.10;;
44214;SDS011;29884;47.450;19.124;2023-05-07T09:37:53;3.42;;;1.30;;
44214;SDS011;29884;47.450;19.124;2023-05-07T09:40:28;1.77;;;1.13;;
44214;SDS011;29884;47.450;19.124;2023-05-07T09:42:56;1.33;;;0.90;;
44214;SDS011;29884;47.450;19.124;2023-05-07T09:45:25;2.15;;;1.08;;
44214;SDS011;29884;47.450;19.124;2023-05-07T09:47:55;2.42;;;1.13;;
44214;SDS011;29884;47.450;19.124;2023-05-07T09:50:28;2.60;;;0.95;;
44214;SDS011;29884;47.450;19.124;2023-05-07T09:52:55;2.35;;;1.00;;
44214;SDS011;29884;47.450;19.124;2023-05-07T09:55:22;1.70;;;0.80;;
44214;SDS011;29884;47.450;19.124;2023-05-07T09:57:50;1.67;;;1.00;;
44214;SDS011;29884;47.450;19.124;2023-05-07T10:00:17;1.58;;;1.10;;
44214;SDS011;29884;47.450;19.124;2023-05-07T10:02:45;1.10;;;0.90;;
44214;SDS011;29884;47.450;19.124;2023-05-07T10:05:14;1.30;;;1.02;;
44214;SDS011;29884;47.450;19.124;2023-05-07T10:07:40;2.38;;;1.48;;
44214;SDS011;29884;47.450;19.124;2023-05-07T10:10:06;1.77;;;1.10;;
44214;SDS011;29884;47.450;19.124;2023-05-07T10:12:32;1.92;;;1.20;;
44214;SDS011;29884;47.450;19.124;2023-05-07T10:15:04;2.70;;;1.10;;
44214;SDS011;29884;47.450;19.124;2023-05-07T10:17:37;1.70;;;1.02;;
44214;SDS011;29884;47.450;19.124;2023-05-07T10:20:04;3.15;;;1.20;;
44214;SDS011;29884;47.450;19.124;2023-05-07T10:22:51;4.60;;;1.20;;
44214;SDS011;29884;47.450;19.124;2023-05-07T10:25:30;1.48;;;1.00;;
44214;SDS011;29884;47.450;19.124;2023-05-07T10:27:57;1.60;;;1.02;;
44214;SDS011;29884;47.450;19.124;2023-05-07T10:33:16;2.10;;;1.20;;
44214;SDS011;29884;47.450;19.124;2023-05-07T10:35:44;1.33;;;0.90;;
44214;SDS011;29884;47.450;19.124;2023-05-07T10:38:12;1.20;;;0.70;;
44214;SDS011;29884;47.450;19.124;2023-05-07T10:40:38;3.15;;;0.90;;
44214;SDS011;29884;47.450;19.124;2023-05-07T10:43:05;1.00;;;0.80;;
44214;SDS011;29884;47.450;19.124;2023-05-07T10:45:31;1.30;;;0.80;;
44214;SDS011;29884;47.450;19.124;2023-05-07T10:48:15;1.20;;;0.90;;
44214;SDS011;29884;47.450;19.124;2023-05-07T10:50:45;2.65;;;0.80;;
44214;SDS011;29884;47.450;19.124;2023-05-07T10:55:46;2.17;;;1.67;;
44214;SDS011;29884;47.450;19.124;2023-05-07T10:58:29;1.63;;;0.80;;
44214;SDS011;29884;47.450;19.124;2023-05-07T11:01:05;2.60;;;0.83;;
44214;SDS011;29884;47.450;19.124;2023-05-07T11:03:30;1.20;;;0.82;;
44214;SDS011;29884;47.450;19.124;2023-05-07T11:08:57;3.35;;;1.70;;
44214;SDS011;29884;47.450;19.124;2023-05-07T11:14:13;1.60;;;0.90;;
44214;SDS011;29884;47.450;19.124;2023-05-07T11:17:02;1.38;;;0.93;;
44214;SDS011;29884;47.450;19.124;2023-05-07T11:25:09;1.40;;;0.95;;
44214;SDS011;29884;47.450;19.124;2023-05-07T11:27:36;1.60;;;1.00;;
44214;SDS011;29884;47.450;19.124;2023-05-07T11:30:02;2.08;;;1.20;;
44214;SDS011;29884;47.450;19.124;2023-05-07T11:32:29;2.53;;;1.00;;
44214;SDS011;29884;47.450;19.124;2023-05-07T11:34:57;1.48;;;1.15;;
44214;SDS011;29884;47.450;19.124;2023-05-07T11:37:24;1.77;;;0.88;;
44214;SDS011;29884;47.450;19.124;2023-05-07T11:39:52;2.50;;;0.88;;
44214;SDS011;29884;47.450;19.124;2023-05-07T11:42:29;1.73;;;0.90;;
44214;SDS011;29884;47.450;19.124;2023-05-07T11:44:55;1.92;;;1.00;;
44214;SDS011;29884;47.450;19.124;2023-05-07T11:47:21;1.10;;;0.80;;
44214;SDS011;29884;47.450;19.124;2023-05-07T11:49:47;1.35;;;0.90;;
44214;SDS011;29884;47.450;19.124;2023-05-07T11:52:15;1.48;;;0.82;;
44214;SDS011;29884;47.450;19.124;2023-05-07T11:54:41;1.73;;;0.88;;
44214;SDS011;29884;47.450;19.124;2023-05-07T11:57:06;2.60;;;0.77;;
44214;SDS011;29884;47.450;19.124;2023-05-07T11:59:40;2.10;;;0.60;;
44214;SDS011;29884;47.450;19.124;2023-05-07T12:02:06;1.17;;;0.80;;
44214;SDS011;29884;47.450;19.124;2023-05-07T12:04:32;1.20;;;0.70;;
44214;SDS011;29884;47.450;19.124;2023-05-07T12:06:58;1.15;;;0.80;;
44214;SDS011;29884;47.450;19.124;2023-05-07T12:09:24;1.05;;;0.70;;
44214;SDS011;29884;47.450;19.124;2023-05-07T12:11:51;0.90;;;0.70;;
44214;SDS011;29884;47.450;19.124;2023-05-07T12:14:17;1.00;;;0.70;;
44214;SDS011;29884;47.450;19.124;2023-05-07T12:16:44;1.08;;;0.70;;
44214;SDS011;29884;47.450;19.124;2023-05-07T12:19:10;0.70;;;0.57;;
44214;SDS011;29884;47.450;19.124;2023-05-07T12:21:39;1.23;;;0.68;;
44214;SDS011;29884;47.450;19.124;2023-05-07T12:24:05;1.67;;;0.70;;
44214;SDS011;29884;47.450;19.124;2023-05-07T12:26:33;0.80;;;0.60;;
44214;SDS011;29884;47.450;19.124;2023-05-07T12:29:05;1.10;;;0.70;;
44214;SDS011;29884;47.450;19.124;2023-05-07T12:31:31;1.10;;;0.70;;
44214;SDS011;29884;47.450;19.124;2023-05-07T12:33:57;1.88;;;0.70;;
44214;SDS011;29884;47.450;19.124;2023-05-07T12:36:23;1.40;;;0.80;;
44214;SDS011;29884;47.450;19.124;2023-05-07T12:38:50;0.80;;;0.60;;
44214;SDS011;29884;47.450;19.124;2023-05-07T12:41:16;1.27;;;0.68;;
44214;SDS011;29884;47.450;19.124;2023-05-07T12:43:46;1.67;;;0.80;;
44214;SDS011;29884;47.450;19.124;2023-05-07T12:46:12;1.40;;;0.70;;
44214;SDS011;29884;47.450;19.124;2023-05-07T12:48:45;2.28;;;0.80;;
44214;SDS011;29884;47.450;19.124;2023-05-07T12:51:11;2.05;;;0.70;;
44214;SDS011;29884;47.450;19.124;2023-05-07T12:53:42;1.35;;;0.52;;
44214;SDS011;29884;47.450;19.124;2023-05-07T12:56:08;1.08;;;0.80;;
44214;SDS011;29884;47.450;19.124;2023-05-07T12:58:34;2.72;;;0.70;;
44214;SDS011;29884;47.450;19.124;2023-05-07T13:01:03;1.02;;;0.70;;
44214;SDS011;29884;47.450;19.124;2023-05-07T13:03:31;0.70;;;0.60;;
44214;SDS011;29884;47.450;19.124;2023-05-07T13:06:05;2.50;;;0.60;;
44214;SDS011;29884;47.450;19.124;2023-05-07T13:08:37;2.47;;;0.90;;
44214;SDS011;29884;47.450;19.124;2023-05-07T13:11:10;2.05;;;0.80;;
44214;SDS011;29884;47.450;19.124;2023-05-07T13:13:37;1.88;;;0.60;;
44214;SDS011;29884;47.450;19.124;2023-05-07T13:16:05;1.38;;;0.88;;
44214;SDS011;29884;47.450;19.124;2023-05-07T13:18:33;1.00;;;0.60;;
44214;SDS011;29884;47.450;19.124;2023-05-07T13:21:00;1.40;;;0.80;;
44214;SDS011;29884;47.450;19.124;2023-05-07T13:23:26;2.03;;;0.63;;
44214;SDS011;29884;47.450;19.124;2023-05-07T13:25:53;0.75;;;0.55;;
44214;SDS011;29884;47.450;19.124;2023-05-07T13:28:19;0.70;;;0.50;;
44214;SDS011;29884;47.450;19.124;2023-05-07T13:30:45;1.42;;;0.50;;
44214;SDS011;29884;47.450;19.124;2023-05-07T13:33:11;1.10;;;0.63;;
44214;SDS011;29884;47.450;19.124;2023-05-07T13:35:37;1.80;;;1.00;;
44214;SDS011;29884;47.450;19.124;2023-05-07T13:38:04;3.35;;;0.90;;
44214;SDS011;29884;47.450;19.124;2023-05-07T13:40:30;2.35;;;0.77;;
44214;SDS011;29884;47.450;19.124;2023-05-07T13:42:59;1.25;;;0.75;;
44214;SDS011;29884;47.450;19.124;2023-05-07T13:45:27;1.95;;;1.20;;
44214;SDS011;29884;47.450;19.124;2023-05-07T13:47:56;1.42;;;0.80;;
44214;SDS011;29884;47.450;19.124;2023-05-07T13:50:22;2.17;;;0.77;;
44214;SDS011;29884;47.450;19.124;2023-05-07T13:52:48;1.20;;;0.65;;
44214;SDS011;29884;47.450;19.124;2023-05-07T13:55:17;0.93;;;0.60;;
44214;SDS011;29884;47.450;19.124;2023-05-07T13:57:43;0.63;;;0.40;;
44214;SDS011;29884;47.450;19.124;2023-05-07T14:00:09;1.05;;;0.60;;
44214;SDS011;29884;47.450;19.124;2023-05-07T14:02:35;2.90;;;0.90;;
44214;SDS011;29884;47.450;19.124;2023-05-07T14:05:01;0.55;;;0.43;;
44214;SDS011;29884;47.450;19.124;2023-05-07T14:07:27;0.88;;;0.50;;
44214;SDS011;29884;47.450;19.124;2023-05-07T14:09:53;1.48;;;0.70;;
44214;SDS011;29884;47.450;19.124;2023-05-07T14:12:19;1.30;;;0.60;;
44214;SDS011;29884;47.450;19.124;2023-05-07T14:14:45;1.70;;;0.90;;
44214;SDS011;29884;47.450;19.124;2023-05-07T14:17:12;2.95;;;0.80;;
44214;SDS011;29884;47.450;19.124;2023-05-07T14:19:38;1.30;;;0.70;;
44214;SDS011;29884;47.450;19.124;2023-05-07T14:22:03;1.80;;;0.80;;
44214;SDS011;29884;47.450;19.124;2023-05-07T14:24:29;1.48;;;0.75;;
44214;SDS011;29884;47.450;19.124;2023-05-07T14:26:55;2.00;;;0.93;;
44214;SDS011;29884;47.450;19.124;2023-05-07T14:29:21;0.70;;;0.60;;
44214;SDS011;29884;47.450;19.124;2023-05-07T14:31:47;0.82;;;0.60;;
44214;SDS011;29884;47.450;19.124;2023-05-07T14:34:13;1.00;;;0.60;;
44214;SDS011;29884;47.450;19.124;2023-05-07T14:36:39;0.90;;;0.70;;
44214;SDS011;29884;47.450;19.124;2023-05-07T14:39:04;1.00;;;0.63;;
44214;SDS011;29884;47.450;19.124;2023-05-07T14:41:31;0.70;;;0.60;;
44214;SDS011;29884;47.450;19.124;2023-05-07T14:43:58;2.17;;;0.70;;
44214;SDS011;29884;47.450;19.124;2023-05-07T14:46:24;0.80;;;0.60;;